Time;durP1;ratioP1;P1;durP2;ratioP2;P2;SDS_P1;SDS_P2;PMS_P1;PMS_P2;Temp;Humidity;BMP_temperature;BMP_pressure;BME280_temperature;BME280_humidity;BME280_pressure;Samples;Min_cycle;Max_cycle;Signal;HPM_P1;HPM_P2
2021/09/20 00:01:48;;;;;;;0.63;0.60;;;14.90;99.90;;;;;;5074905;28;20221;-77
2021/09/20 00:04:15;;;;;;;1.08;0.80;;;14.80;99.90;;;;;;5081507;28;20229;-77
2021/09/20 00:06:42;;;;;;;0.68;0.68;;;14.70;99.90;;;;;;5078528;28;20272;-77
2021/09/20 00:09:09;;;;;;;0.70;0.70;;;14.70;99.90;;;;;;5075538;28;20909;-78
2021/09/20 00:11:36;;;;;;;0.50;0.50;;;14.70;99.90;;;;;;5074503;28;20225;-77
2021/09/20 00:14:03;;;;;;;1.23;0.88;;;14.70;99.90;;;;;;5070812;28;20218;-78
2021/09/20 00:16:31;;;;;;;0.60;0.60;;;14.70;99.90;;;;;;5075816;28;20282;-77
2021/09/20 00:18:59;;;;;;;0.70;0.70;;;14.70;99.90;;;;;;5073103;28;20580;-77
2021/09/20 00:21:26;;;;;;;0.60;0.60;;;14.70;99.90;;;;;;5075787;28;20230;-78
2021/09/20 00:23:54;;;;;;;0.55;0.55;;;14.60;99.90;;;;;;5076955;28;20661;-77
2021/09/20 00:26:21;;;;;;;0.80;0.80;;;14.70;99.90;;;;;;5076492;28;20279;-77
2021/09/20 00:28:48;;;;;;;0.60;0.60;;;14.60;99.90;;;;;;5076032;28;20664;-78
2021/09/20 00:31:15;;;;;;;0.73;0.73;;;14.60;99.90;;;;;;5075765;28;20280;-77
2021/09/20 00:33:42;;;;;;;0.65;0.65;;;14.60;99.90;;;;;;5078541;28;20244;-77
2021/09/20 00:36:11;;;;;;;0.60;0.60;;;14.60;99.90;;;;;;5044708;22;20229;-78
2021/09/20 00:38:38;;;;;;;0.80;0.80;;;14.60;99.90;;;;;;5022827;28;20272;-77
2021/09/20 00:41:05;;;;;;;0.65;0.65;;;14.60;99.90;;;;;;5030382;28;20238;-83
2021/09/20 00:43:32;;;;;;;0.60;0.60;;;14.60;99.90;;;;;;5034646;28;20218;-77
2021/09/20 00:45:59;;;;;;;0.55;0.55;;;14.60;99.90;;;;;;5038692;28;20601;-79
2021/09/20 00:48:27;;;;;;;0.60;0.60;;;14.60;99.90;;;;;;5041599;28;20657;-78
2021/09/20 00:50:54;;;;;;;0.77;0.77;;;14.60;99.90;;;;;;5037882;28;20232;-79
2021/09/20 00:53:22;;;;;;;0.70;0.70;;;14.50;99.90;;;;;;5041099;28;20234;-79
2021/09/20 00:55:50;;;;;;;0.63;0.63;;;14.50;99.90;;;;;;5038407;28;20284;-78
2021/09/20 00:58:17;;;;;;;0.50;0.50;;;14.50;99.90;;;;;;5041478;28;20223;-81
2021/09/20 01:00:44;;;;;;;0.60;0.60;;;14.40;99.90;;;;;;5040603;28;20304;-80
2021/09/20 01:03:11;;;;;;;0.70;0.70;;;14.30;99.90;;;;;;5001620;28;20224;-80
2021/09/20 01:05:38;;;;;;;0.60;0.60;;;14.20;99.90;;;;;;5041073;28;20263;-79
2021/09/20 01:08:06;;;;;;;1.48;0.60;;;14.20;99.90;;;;;;5035970;28;20340;-77
2021/09/20 01:10:34;;;;;;;0.63;0.60;;;14.20;99.90;;;;;;5041395;28;20223;-80
2021/09/20 01:13:01;;;;;;;0.70;0.70;;;14.20;99.90;;;;;;5042135;28;20586;-77
2021/09/20 01:15:28;;;;;;;0.40;0.40;;;14.20;99.90;;;;;;5041971;28;20769;-76
2021/09/20 01:17:55;;;;;;;1.17;0.60;;;14.10;99.90;;;;;;5039719;28;20234;-77
2021/09/20 01:20:23;;;;;;;0.50;0.50;;;14.00;99.90;;;;;;5035268;28;20284;-76
2021/09/20 01:22:57;;;;;;;0.60;0.60;;;14.00;99.90;;;;;;5040805;28;20309;-77
2021/09/20 01:25:24;;;;;;;0.60;0.60;;;14.00;99.90;;;;;;5039046;28;20281;-76
2021/09/20 01:27:51;;;;;;;0.60;0.60;;;14.00;99.90;;;;;;5041170;28;20651;-78
2021/09/20 01:30:18;;;;;;;1.05;0.60;;;14.00;99.90;;;;;;5038532;28;20214;-78
2021/09/20 01:32:46;;;;;;;0.68;0.68;;;14.10;99.90;;;;;;5041090;28;20644;-78
2021/09/20 01:35:13;;;;;;;0.47;0.47;;;14.10;99.90;;;;;;5039039;28;20249;-80
2021/09/20 01:37:41;;;;;;;0.77;0.77;;;14.00;99.90;;;;;;5037829;28;20226;-79
2021/09/20 01:40:11;;;;;;;0.50;0.50;;;14.00;99.90;;;;;;5041082;28;20235;-75
2021/09/20 01:42:38;;;;;;;0.60;0.60;;;14.00;99.90;;;;;;5036182;28;20296;-77
2021/09/20 01:45:06;;;;;;;0.70;0.70;;;14.00;99.90;;;;;;5040295;28;20229;-77
2021/09/20 01:47:33;;;;;;;0.68;0.68;;;14.00;99.90;;;;;;5039079;28;20627;-78
2021/09/20 01:50:00;;;;;;;0.60;0.60;;;14.10;99.90;;;;;;5039570;28;20229;-79
2021/09/20 01:52:28;;;;;;;0.93;0.70;;;14.00;99.90;;;;;;5038532;28;20819;-81
2021/09/20 01:54:56;;;;;;;0.57;0.50;;;14.00;99.90;;;;;;5038953;28;20593;-79
2021/09/20 01:57:24;;;;;;;0.73;0.70;;;14.00;99.90;;;;;;5036766;28;20226;-81
2021/09/20 01:59:52;;;;;;;0.60;0.60;;;14.00;99.90;;;;;;5041710;28;20287;-79
2021/09/20 02:02:19;;;;;;;0.70;0.70;;;13.90;99.90;;;;;;5041266;28;20292;-79
2021/09/20 02:04:46;;;;;;;0.70;0.70;;;13.90;99.90;;;;;;5037005;28;20222;-79
2021/09/20 02:07:13;;;;;;;0.70;0.70;;;13.90;99.90;;;;;;5041500;28;20254;-78
2021/09/20 02:09:41;;;;;;;0.50;0.50;;;13.90;99.90;;;;;;5038593;28;20637;-79
2021/09/20 02:12:08;;;;;;;0.60;0.60;;;13.90;99.90;;;;;;5033143;28;20222;-76
2021/09/20 02:14:36;;;;;;;0.52;0.52;;;13.90;99.90;;;;;;5036578;28;20226;-78
2021/09/20 02:17:04;;;;;;;0.60;0.60;;;13.90;99.90;;;;;;5038418;28;20230;-77
2021/09/20 02:19:31;;;;;;;0.60;0.60;;;14.00;99.90;;;;;;5038651;28;20583;-82
2021/09/20 02:21:58;;;;;;;0.60;0.60;;;14.00;99.90;;;;;;5039711;28;20245;-76
2021/09/20 02:24:25;;;;;;;0.60;0.60;;;14.00;99.90;;;;;;5039161;28;20218;-78
2021/09/20 02:26:52;;;;;;;0.70;0.70;;;13.90;99.90;;;;;;5036040;28;20235;-75
2021/09/20 02:29:19;;;;;;;0.60;0.60;;;13.90;99.90;;;;;;5038404;28;20227;-77
2021/09/20 02:31:48;;;;;;;0.55;0.55;;;13.90;99.90;;;;;;5037641;28;20284;-78
2021/09/20 02:34:15;;;;;;;0.60;0.60;;;13.80;99.90;;;;;;5040211;28;20759;-78
2021/09/20 02:36:42;;;;;;;0.93;0.60;;;13.80;99.90;;;;;;5038800;28;20235;-79
2021/09/20 02:39:09;;;;;;;0.68;0.68;;;13.70;99.90;;;;;;5035851;28;20284;-76
2021/09/20 02:41:36;;;;;;;0.70;0.70;;;13.70;99.90;;;;;;5038801;28;20231;-76
2021/09/20 02:44:03;;;;;;;0.60;0.60;;;13.70;99.90;;;;;;5038891;28;20218;-78
2021/09/20 02:46:30;;;;;;;0.85;0.70;;;13.60;99.90;;;;;;5039142;28;20631;-81
2021/09/20 02:48:59;;;;;;;1.95;0.70;;;13.60;99.90;;;;;;5038234;28;20243;-77
2021/09/20 02:51:26;;;;;;;0.70;0.70;;;13.60;99.90;;;;;;5035996;28;20226;-80
2021/09/20 02:53:53;;;;;;;0.68;0.68;;;13.60;99.90;;;;;;5038504;28;20230;-76
2021/09/20 02:56:20;;;;;;;0.77;0.77;;;13.60;99.90;;;;;;5038170;28;20280;-78
2021/09/20 02:58:47;;;;;;;0.70;0.70;;;13.60;99.90;;;;;;5040094;28;20226;-76
2021/09/20 03:01:14;;;;;;;0.90;0.90;;;13.60;99.90;;;;;;5038295;28;20242;-76
2021/09/20 03:03:41;;;;;;;0.77;0.77;;;13.60;99.90;;;;;;5037829;28;20643;-81
2021/09/20 03:06:10;;;;;;;0.65;0.65;;;13.60;99.90;;;;;;5038723;28;20785;-77
2021/09/20 03:08:37;;;;;;;0.63;0.63;;;13.60;99.90;;;;;;5042037;28;20228;-78
2021/09/20 03:11:04;;;;;;;0.60;0.60;;;13.50;99.90;;;;;;5042998;28;20692;-81
2021/09/20 03:13:31;;;;;;;0.65;0.65;;;13.40;99.90;;;;;;5042583;28;20225;-78
2021/09/20 03:15:58;;;;;;;0.60;0.60;;;13.40;99.90;;;;;;5042803;28;20222;-77
2021/09/20 03:18:25;;;;;;;0.68;0.68;;;13.50;99.90;;;;;;5042181;28;20235;-79
2021/09/20 03:20:52;;;;;;;0.70;0.70;;;13.50;99.90;;;;;;5045609;28;20227;-77
2021/09/20 03:23:20;;;;;;;0.60;0.60;;;13.50;99.90;;;;;;5041211;28;20234;-78
2021/09/20 03:25:47;;;;;;;0.60;0.60;;;13.50;99.90;;;;;;5019060;28;20273;-78
2021/09/20 03:28:14;;;;;;;0.70;0.70;;;13.60;99.90;;;;;;5040838;28;20277;-77
2021/09/20 03:30:41;;;;;;;0.70;0.70;;;13.50;99.90;;;;;;5043803;28;20226;-79
2021/09/20 03:33:08;;;;;;;0.70;0.70;;;13.40;99.90;;;;;;5040417;28;20238;-76
2021/09/20 03:35:35;;;;;;;0.55;0.55;;;13.40;99.90;;;;;;5043734;28;20230;-78
2021/09/20 03:38:02;;;;;;;0.63;0.63;;;13.40;99.90;;;;;;5043321;28;20285;-78
2021/09/20 03:40:31;;;;;;;0.60;0.60;;;13.40;99.90;;;;;;5041906;28;20226;-77
2021/09/20 03:42:58;;;;;;;1.40;0.70;;;13.30;99.90;;;;;;5039550;28;20365;-75
2021/09/20 03:45:25;;;;;;;0.60;0.60;;;13.30;99.90;;;;;;5039034;28;20222;-79
2021/09/20 03:47:52;;;;;;;0.68;0.68;;;13.30;99.90;;;;;;5038814;28;20312;-79
2021/09/20 03:50:19;;;;;;;0.60;0.60;;;13.30;99.90;;;;;;5042531;28;20763;-76
2021/09/20 03:52:47;;;;;;;0.70;0.70;;;13.30;99.90;;;;;;5041278;28;20231;-77
2021/09/20 03:55:14;;;;;;;0.70;0.70;;;13.20;99.90;;;;;;5042211;28;20245;-77
2021/09/20 03:57:42;;;;;;;0.80;0.80;;;13.20;99.90;;;;;;5041734;28;20778;-77
2021/09/20 04:00:11;;;;;;;0.60;0.60;;;13.20;99.90;;;;;;5041554;28;20293;-78
2021/09/20 04:02:38;;;;;;;0.70;0.70;;;13.20;99.90;;;;;;5041219;28;20787;-80
2021/09/20 04:05:06;;;;;;;0.70;0.70;;;13.20;99.90;;;;;;5034919;28;20227;-75
2021/09/20 04:07:33;;;;;;;0.50;0.50;;;13.20;99.90;;;;;;5036750;28;20230;-76
2021/09/20 04:10:01;;;;;;;0.68;0.68;;;13.20;99.90;;;;;;5038525;28;20227;-80
2021/09/20 04:12:28;;;;;;;0.73;0.73;;;13.20;99.90;;;;;;5037479;28;20728;-76
2021/09/20 04:14:56;;;;;;;0.57;0.57;;;13.20;99.90;;;;;;5040250;28;20280;-79
2021/09/20 04:17:23;;;;;;;0.60;0.60;;;13.20;99.90;;;;;;5037432;28;20742;-82
2021/09/20 04:19:51;;;;;;;0.70;0.70;;;13.10;99.90;;;;;;5040996;28;20239;-79
2021/09/20 04:22:18;;;;;;;0.63;0.63;;;13.10;99.90;;;;;;5041267;28;20245;-77
2021/09/20 04:24:45;;;;;;;0.60;0.60;;;13.10;99.90;;;;;;5039856;28;20239;-81
2021/09/20 04:27:12;;;;;;;0.60;0.60;;;13.10;99.90;;;;;;5039532;28;20235;-79
2021/09/20 04:29:39;;;;;;;0.68;0.68;;;13.10;99.90;;;;;;5040663;28;20887;-76
2021/09/20 04:32:08;;;;;;;0.60;0.60;;;13.20;99.90;;;;;;5041358;28;20269;-79
2021/09/20 04:34:35;;;;;;;0.70;0.70;;;13.20;99.90;;;;;;5040621;28;20222;-77
2021/09/20 04:37:02;;;;;;;0.73;0.73;;;13.20;99.90;;;;;;5040962;28;20231;-76
2021/09/20 04:39:32;;;;;;;0.68;0.68;;;13.20;99.90;;;;;;5038833;28;20226;-76
2021/09/20 04:42:00;;;;;;;0.60;0.60;;;13.20;99.90;;;;;;5040688;28;20222;-78
2021/09/20 04:44:27;;;;;;;0.70;0.70;;;13.10;99.90;;;;;;5041169;28;20345;-77
2021/09/20 04:46:54;;;;;;;0.60;0.60;;;13.10;99.90;;;;;;5040028;28;20219;-76
2021/09/20 04:49:22;;;;;;;0.63;0.63;;;13.10;99.90;;;;;;5039668;28;20704;-76
2021/09/20 04:51:49;;;;;;;1.40;0.70;;;13.10;99.90;;;;;;5041154;28;20280;-78
2021/09/20 04:54:16;;;;;;;0.70;0.70;;;13.00;99.90;;;;;;5038345;28;20572;-78
2021/09/20 04:56:43;;;;;;;0.80;0.80;;;13.00;99.90;;;;;;5038718;28;20713;-75
2021/09/20 04:59:10;;;;;;;0.70;0.70;;;13.10;99.90;;;;;;5041169;28;20222;-80
2021/09/20 05:01:37;;;;;;;0.63;0.63;;;13.10;99.90;;;;;;5038950;28;20799;-78
2021/09/20 05:04:05;;;;;;;0.60;0.60;;;13.10;99.90;;;;;;5041468;28;20250;-77
2021/09/20 05:06:33;;;;;;;0.60;0.60;;;13.10;99.90;;;;;;5040628;28;20230;-76
2021/09/20 05:09:01;;;;;;;1.02;0.77;;;13.10;99.90;;;;;;5043035;28;20315;-77
2021/09/20 05:11:28;;;;;;;0.80;0.80;;;13.10;99.90;;;;;;5041498;28;20230;-78
2021/09/20 05:13:55;;;;;;;0.60;0.60;;;13.10;99.90;;;;;;5040344;28;20230;-77
2021/09/20 05:16:22;;;;;;;0.70;0.70;;;13.10;99.90;;;;;;5040294;28;20238;-76
2021/09/20 05:18:49;;;;;;;0.63;0.63;;;13.10;99.90;;;;;;5040941;28;20735;-81
2021/09/20 05:21:16;;;;;;;0.70;0.70;;;13.10;99.90;;;;;;5039835;28;20236;-75
2021/09/20 05:23:46;;;;;;;0.70;0.70;;;13.10;99.90;;;;;;5041563;28;20713;-76
2021/09/20 05:26:14;;;;;;;0.50;0.50;;;13.00;99.90;;;;;;5040936;28;20249;-78
2021/09/20 05:28:41;;;;;;;0.80;0.80;;;13.00;99.90;;;;;;5039481;28;20226;-77
2021/09/20 05:31:08;;;;;;;0.60;0.60;;;13.00;99.90;;;;;;5042608;28;20229;-77
2021/09/20 05:33:35;;;;;;;0.80;0.80;;;13.00;99.90;;;;;;5042687;28;20223;-77
2021/09/20 05:36:02;;;;;;;0.73;0.73;;;13.10;99.90;;;;;;5040332;28;20231;-76
2021/09/20 05:38:29;;;;;;;0.65;0.65;;;13.10;99.90;;;;;;5040808;28;20223;-80
2021/09/20 05:40:58;;;;;;;0.70;0.70;;;13.10;99.90;;;;;;5039602;28;20223;-76
2021/09/20 05:43:25;;;;;;;0.60;0.60;;;13.10;99.90;;;;;;5038853;28;20854;-77
2021/09/20 05:45:53;;;;;;;0.80;0.80;;;13.10;99.90;;;;;;5041031;28;20655;-75
2021/09/20 05:48:20;;;;;;;0.70;0.70;;;13.40;99.90;;;;;;5039446;28;20230;-79
2021/09/20 05:50:48;;;;;;;0.65;0.65;;;13.70;99.90;;;;;;5038113;28;20246;-80
2021/09/20 05:53:15;;;;;;;0.80;0.80;;;14.10;99.90;;;;;;5039678;28;20280;-77
2021/09/20 05:55:47;;;;;;;0.90;0.90;;;14.30;99.90;;;;;;5039086;28;20269;-78
2021/09/20 05:58:15;;;;;;;0.77;0.77;;;14.40;99.90;;;;;;5040123;28;20230;-77
2021/09/20 06:00:43;;;;;;;1.85;0.85;;;14.60;99.90;;;;;;5037398;28;20237;-76
2021/09/20 06:03:10;;;;;;;0.80;0.80;;;14.70;99.90;;;;;;5042144;28;20230;-77
2021/09/20 06:05:38;;;;;;;0.80;0.80;;;14.70;99.90;;;;;;5036853;28;20230;-76
2021/09/20 06:08:07;;;;;;;0.77;0.77;;;14.70;99.90;;;;;;5040011;28;20223;-77
2021/09/20 06:10:35;;;;;;;0.75;0.70;;;14.90;99.90;;;;;;5040810;28;20277;-78
2021/09/20 06:13:03;;;;;;;0.82;0.82;;;15.00;99.90;;;;;;5038347;28;20243;-77
2021/09/20 06:15:32;;;;;;;1.15;0.90;;;15.10;99.90;;;;;;5038832;28;20253;-77
2021/09/20 06:17:59;;;;;;;0.88;0.88;;;15.20;99.90;;;;;;5036554;28;20234;-76
2021/09/20 06:20:26;;;;;;;1.50;1.00;;;15.50;99.90;;;;;;5036512;28;20585;-80
2021/09/20 06:22:53;;;;;;;0.93;0.93;;;16.10;99.90;;;;;;5037674;28;20214;-75
2021/09/20 06:25:20;;;;;;;1.02;0.90;;;16.70;99.90;;;;;;5041539;28;20222;-76
2021/09/20 06:27:47;;;;;;;0.85;0.85;;;17.30;99.90;;;;;;5037892;28;20277;-78
2021/09/20 06:30:15;;;;;;;0.60;0.60;;;17.80;99.90;;;;;;5038832;28;20235;-79
2021/09/20 06:32:43;;;;;;;2.10;0.73;;;18.20;99.90;;;;;;5037804;28;20218;-77
2021/09/20 06:35:11;;;;;;;0.73;0.70;;;18.60;99.90;;;;;;5043120;28;20280;-77
2021/09/20 06:37:39;;;;;;;1.27;0.85;;;18.80;99.90;;;;;;5066358;22;20234;-78
2021/09/20 06:40:08;;;;;;;0.60;0.60;;;18.70;99.90;;;;;;5074326;28;20221;-79
2021/09/20 06:42:35;;;;;;;0.70;0.70;;;18.70;99.90;;;;;;5078863;28;20266;-79
2021/09/20 06:45:03;;;;;;;0.63;0.63;;;18.70;99.90;;;;;;5080324;28;20222;-78
2021/09/20 06:47:30;;;;;;;0.95;0.90;;;18.70;99.90;;;;;;5082691;28;20279;-78
2021/09/20 06:49:58;;;;;;;0.98;0.98;;;18.60;99.90;;;;;;5066972;28;20235;-78
2021/09/20 06:52:25;;;;;;;0.73;0.68;;;18.50;99.90;;;;;;5066546;28;20234;-79
2021/09/20 06:54:52;;;;;;;2.47;0.90;;;18.60;99.90;;;;;;5061849;28;20222;-77
2021/09/20 06:57:19;;;;;;;0.77;0.77;;;18.70;99.90;;;;;;5065366;28;20225;-78
2021/09/20 06:59:46;;;;;;;1.00;1.00;;;18.80;99.90;;;;;;5062626;28;20619;-78
2021/09/20 07:02:13;;;;;;;0.70;0.70;;;18.90;99.90;;;;;;5064841;28;20287;-78
2021/09/20 07:04:40;;;;;;;0.80;0.80;;;19.00;99.90;;;;;;5072449;28;20965;-78
2021/09/20 07:07:09;;;;;;;1.00;1.00;;;18.90;99.90;;;;;;5069777;28;20221;-78
2021/09/20 07:09:36;;;;;;;0.80;0.80;;;18.70;99.90;;;;;;5070986;28;20243;-78
2021/09/20 07:12:03;;;;;;;0.52;0.52;;;18.90;99.90;;;;;;5067544;28;20215;-79
2021/09/20 07:14:30;;;;;;;0.70;0.70;;;19.20;99.90;;;;;;5066019;28;20225;-79
2021/09/20 07:16:57;;;;;;;0.90;0.70;;;19.50;99.90;;;;;;5066267;28;20280;-79
2021/09/20 07:19:24;;;;;;;1.20;0.77;;;19.60;99.90;;;;;;5068406;28;20226;-79
2021/09/20 07:21:51;;;;;;;0.70;0.70;;;19.80;99.90;;;;;;5068104;28;20280;-79
2021/09/20 07:24:19;;;;;;;0.70;0.70;;;20.00;99.90;;;;;;5064270;28;20327;-79
2021/09/20 07:26:47;;;;;;;0.60;0.60;;;20.10;99.90;;;;;;5066149;28;20226;-79
2021/09/20 07:29:14;;;;;;;1.00;0.63;;;19.60;99.90;;;;;;5062970;28;20253;-78
2021/09/20 07:31:41;;;;;;;0.85;0.70;;;19.40;99.90;;;;;;5066875;28;20240;-78
2021/09/20 07:34:08;;;;;;;0.60;0.60;;;19.50;99.90;;;;;;5061839;28;20227;-78
2021/09/20 07:36:36;;;;;;;0.60;0.60;;;19.70;99.90;;;;;;5061777;28;20221;-79
2021/09/20 07:39:03;;;;;;;0.73;0.60;;;19.40;99.90;;;;;;5068409;28;20273;-79
2021/09/20 07:41:32;;;;;;;1.35;0.70;;;19.10;99.90;;;;;;5068421;28;20248;-79
2021/09/20 07:43:59;;;;;;;0.82;0.60;;;19.00;99.90;;;;;;5064892;28;20233;-79
2021/09/20 07:46:26;;;;;;;0.75;0.75;;;19.10;99.90;;;;;;5065420;28;20225;-78
2021/09/20 07:48:53;;;;;;;2.95;0.80;;;18.80;99.90;;;;;;5067904;28;20230;-78
2021/09/20 07:51:21;;;;;;;0.90;0.90;;;18.60;99.90;;;;;;5068390;28;20295;-78
2021/09/20 07:53:48;;;;;;;0.80;0.80;;;18.50;99.90;;;;;;5060347;28;20232;-78
2021/09/20 07:56:15;;;;;;;1.17;0.80;;;18.50;99.90;;;;;;5068458;28;20284;-78
2021/09/20 07:58:44;;;;;;;1.13;0.80;;;18.40;99.90;;;;;;5071063;28;20290;-78
2021/09/20 08:01:11;;;;;;;0.82;0.82;;;18.60;99.90;;;;;;5070396;28;20237;-79
2021/09/20 08:03:38;;;;;;;1.45;1.02;;;18.90;99.90;;;;;;5065535;28;20288;-78
2021/09/20 08:06:07;;;;;;;0.90;0.70;;;19.20;99.90;;;;;;5066428;28;20221;-78
2021/09/20 08:08:34;;;;;;;1.05;0.95;;;19.40;99.90;;;;;;5070453;28;20249;-78
2021/09/20 08:11:01;;;;;;;0.80;0.60;;;19.40;99.90;;;;;;5065081;28;20655;-78
2021/09/20 08:13:28;;;;;;;0.73;0.73;;;19.40;99.90;;;;;;5062762;28;20278;-78
2021/09/20 08:15:56;;;;;;;0.80;0.80;;;19.20;99.90;;;;;;5070607;28;20244;-78
2021/09/20 08:18:24;;;;;;;0.88;0.88;;;19.00;99.90;;;;;;5077175;28;20225;-78
2021/09/20 08:20:51;;;;;;;0.80;0.80;;;18.80;99.90;;;;;;5069024;28;20229;-78
2021/09/20 08:23:18;;;;;;;0.85;0.70;;;18.70;99.90;;;;;;5063740;28;20218;-78
2021/09/20 08:25:45;;;;;;;0.90;0.75;;;18.50;99.90;;;;;;5060279;28;20221;-78
2021/09/20 08:28:12;;;;;;;0.93;0.80;;;18.60;99.90;;;;;;5057239;28;20237;-77
2021/09/20 08:30:40;;;;;;;0.82;0.60;;;18.80;99.90;;;;;;5060936;28;20225;-77
2021/09/20 08:33:08;;;;;;;0.82;0.75;;;19.30;99.90;;;;;;5055681;28;20568;-78
2021/09/20 08:35:36;;;;;;;0.77;0.60;;;19.80;99.90;;;;;;5061009;28;20234;-79
2021/09/20 08:38:03;;;;;;;0.70;0.70;;;20.30;99.90;;;;;;5059201;28;20773;-78
2021/09/20 08:40:31;;;;;;;1.02;0.50;;;20.40;99.90;;;;;;5058533;28;20275;-79
2021/09/20 08:42:59;;;;;;;1.05;0.70;;;20.70;99.90;;;;;;5059092;28;20305;-79
2021/09/20 08:45:27;;;;;;;0.70;0.70;;;20.80;99.90;;;;;;5062350;28;20292;-78
2021/09/20 08:47:57;;;;;;;2.03;0.80;;;21.00;99.90;;;;;;5063277;28;20225;-78
2021/09/20 08:50:32;;;;;;;0.85;0.50;;;21.00;99.90;;;;;;5062268;28;20863;-78
2021/09/20 08:53:00;;;;;;;0.60;0.60;;;21.10;99.90;;;;;;5060547;28;20225;-78
2021/09/20 08:55:27;;;;;;;0.80;0.75;;;21.30;99.90;;;;;;5063015;28;20239;-79
2021/09/20 08:57:54;;;;;;;2.47;0.70;;;21.10;99.90;;;;;;5061073;28;20235;-77
2021/09/20 09:00:21;;;;;;;0.68;0.65;;;21.30;99.90;;;;;;5060682;28;20323;-78
2021/09/20 09:02:48;;;;;;;1.33;0.60;;;21.40;99.90;;;;;;5062164;28;20593;-78
2021/09/20 09:05:19;;;;;;;0.60;0.60;;;21.70;99.90;;;;;;5058282;28;20230;-77
2021/09/20 09:07:50;;;;;;;1.77;0.80;;;21.80;99.90;;;;;;5061430;28;20708;-79
2021/09/20 09:10:18;;;;;;;0.63;0.63;;;21.70;99.90;;;;;;5059544;28;20223;-78
2021/09/20 09:12:45;;;;;;;1.10;0.52;;;21.80;99.90;;;;;;5059977;28;20280;-78
2021/09/20 09:15:15;;;;;;;0.73;0.70;;;21.90;99.90;;;;;;5061554;28;20298;-79
2021/09/20 09:17:44;;;;;;;0.50;0.50;;;22.00;99.90;;;;;;5059657;28;20500;-78
2021/09/20 09:20:14;;;;;;;0.70;0.70;;;22.20;99.90;;;;;;5061129;28;20241;-78
2021/09/20 09:22:48;;;;;;;0.70;0.70;;;22.20;99.90;;;;;;5064485;28;20228;-78
2021/09/20 09:25:19;;;;;;;1.00;0.90;;;22.10;99.90;;;;;;5058890;28;20232;-75
2021/09/20 09:27:48;;;;;;;2.60;0.77;;;22.20;99.90;;;;;;5060203;28;20299;-78
2021/09/20 09:30:19;;;;;;;0.70;0.70;;;22.20;99.90;;;;;;5060762;28;20248;-78
2021/09/20 09:32:48;;;;;;;0.80;0.77;;;22.00;99.90;;;;;;5063293;28;20244;-78
2021/09/20 09:35:16;;;;;;;0.50;0.50;;;21.90;99.90;;;;;;5061855;28;20229;-78
2021/09/20 09:37:47;;;;;;;0.57;0.57;;;21.80;99.90;;;;;;5061323;28;20331;-78
2021/09/20 09:40:19;;;;;;;1.20;0.70;;;21.80;99.90;;;;;;5061147;28;20971;-79
2021/09/20 09:42:46;;;;;;;0.70;0.70;;;21.80;99.90;;;;;;5063160;28;20781;-78
2021/09/20 09:45:26;;;;;;;0.75;0.75;;;22.00;99.90;;;;;;5064691;28;20222;-78
2021/09/20 09:48:09;;;;;;;1.67;0.68;;;22.30;99.90;;;;;;5063882;28;20250;-78
2021/09/20 09:50:41;;;;;;;0.57;0.57;;;22.50;99.90;;;;;;5061468;28;20657;-78
2021/09/20 09:53:22;;;;;;;2.28;0.60;;;22.50;99.90;;;;;;5064459;28;20244;-79
2021/09/20 09:55:49;;;;;;;0.80;0.63;;;22.40;99.90;;;;;;5064763;28;20271;-78
2021/09/20 09:58:17;;;;;;;0.80;0.70;;;22.40;99.90;;;;;;5062044;28;20238;-78
2021/09/20 10:00:44;;;;;;;0.80;0.60;;;22.30;99.90;;;;;;5058273;28;20727;-79
2021/09/20 10:03:12;;;;;;;0.73;0.70;;;22.40;99.90;;;;;;5065886;28;20263;-78
2021/09/20 10:05:39;;;;;;;0.50;0.50;;;22.40;99.90;;;;;;5064567;28;20217;-79
2021/09/20 10:08:12;;;;;;;0.70;0.70;;;22.60;99.90;;;;;;5067267;28;20665;-79
2021/09/20 10:10:41;;;;;;;0.60;0.60;;;22.80;99.90;;;;;;5061915;28;20355;-79
2021/09/20 10:13:09;;;;;;;0.90;0.60;;;22.90;99.90;;;;;;5063416;28;20309;-77
2021/09/20 10:15:36;;;;;;;0.95;0.60;;;23.20;99.90;;;;;;5058636;28;20250;-78
2021/09/20 10:18:04;;;;;;;0.68;0.50;;;23.40;99.90;;;;;;5067608;28;20233;-78
2021/09/20 10:20:34;;;;;;;0.90;0.60;;;23.70;99.90;;;;;;5070466;28;20262;-79
2021/09/20 10:23:01;;;;;;;0.88;0.50;;;23.70;99.90;;;;;;5069777;28;20234;-78
2021/09/20 10:25:31;;;;;;;1.83;0.40;;;23.50;99.90;;;;;;5068094;28;20288;-79
2021/09/20 10:27:59;;;;;;;2.28;1.00;;;23.30;99.90;;;;;;5068286;28;20283;-79
2021/09/20 10:30:28;;;;;;;1.48;0.60;;;23.30;99.90;;;;;;5068283;28;20241;-79
2021/09/20 10:32:59;;;;;;;0.63;0.63;;;23.30;99.90;;;;;;5063530;28;20251;-78
2021/09/20 10:35:33;;;;;;;0.80;0.60;;;23.50;99.90;;;;;;5069996;28;20707;-79
2021/09/20 10:38:04;;;;;;;0.60;0.60;;;23.40;99.90;;;;;;5069598;28;20650;-78
2021/09/20 10:40:33;;;;;;;2.25;0.70;;;23.10;99.90;;;;;;5072392;28;20234;-79
2021/09/20 10:43:04;;;;;;;0.60;0.60;;;22.90;99.90;;;;;;5073246;28;20245;-79
2021/09/20 10:45:53;;;;;;;1.65;0.60;;;22.90;99.90;;;;;;5070754;28;20256;-79
2021/09/20 10:48:48;;;;;;;1.42;0.50;;;23.20;99.90;;;;;;5071621;28;20262;-79
2021/09/20 10:51:20;;;;;;;0.73;0.50;;;23.30;99.90;;;;;;5074083;28;20267;-79
2021/09/20 10:53:48;;;;;;;0.65;0.40;;;23.30;99.90;;;;;;5073859;28;20591;-79
2021/09/20 10:56:22;;;;;;;1.13;0.50;;;23.30;99.90;;;;;;5071489;28;20226;-79
2021/09/20 10:59:17;;;;;;;1.00;0.40;;;23.40;99.90;;;;;;5072915;28;20666;-79
2021/09/20 11:01:46;;;;;;;0.82;0.50;;;23.60;99.90;;;;;;5068582;28;20214;-78
2021/09/20 11:04:21;;;;;;;0.50;0.50;;;23.70;99.90;;;;;;5074668;28;20285;-79
2021/09/20 11:07:15;;;;;;;0.68;0.60;;;23.60;99.90;;;;;;5074629;28;20225;-79
2021/09/20 11:10:07;;;;;;;0.60;0.60;;;23.60;99.90;;;;;;5062716;28;20686;-78
2021/09/20 11:12:51;;;;;;;0.60;0.60;;;23.60;99.90;;;;;;5066625;28;20239;-78
2021/09/20 11:15:20;;;;;;;0.75;0.57;;;23.50;99.90;;;;;;5064936;28;20222;-77
2021/09/20 11:17:49;;;;;;;0.43;0.40;;;23.60;99.90;;;;;;5073350;28;20233;-78
2021/09/20 11:20:30;;;;;;;0.50;0.50;;;23.80;99.90;;;;;;5075660;28;20317;-78
2021/09/20 11:23:15;;;;;;;0.63;0.50;;;24.10;99.90;;;;;;5071233;28;20222;-78
2021/09/20 11:26:01;;;;;;;0.40;0.40;;;24.50;99.90;;;;;;5074789;28;20283;-78
2021/09/20 11:28:32;;;;;;;1.00;0.55;;;24.60;99.90;;;;;;5071151;28;20233;-78
2021/09/20 11:30:59;;;;;;;0.40;0.40;;;24.50;99.90;;;;;;5063615;28;20225;-78
2021/09/20 11:33:34;;;;;;;0.50;0.50;;;24.40;99.90;;;;;;5068910;28;20226;-78
2021/09/20 11:36:01;;;;;;;0.60;0.60;;;24.20;99.90;;;;;;5074464;28;20241;-78
2021/09/20 11:38:28;;;;;;;0.50;0.50;;;24.20;99.90;;;;;;5073743;28;20297;-78
2021/09/20 11:40:55;;;;;;;0.50;0.50;;;24.20;99.90;;;;;;5064273;28;20253;-78
2021/09/20 11:43:22;;;;;;;0.50;0.50;;;24.20;99.90;;;;;;5062310;28;20227;-78
2021/09/20 11:45:57;;;;;;;0.43;0.43;;;24.20;99.90;;;;;;5062560;28;20234;-78
2021/09/20 11:48:24;;;;;;;0.57;0.30;;;24.30;99.90;;;;;;5065599;28;20232;-78
2021/09/20 11:50:51;;;;;;;0.50;0.50;;;24.40;99.90;;;;;;5073604;28;20630;-78
2021/09/20 11:53:20;;;;;;;1.23;0.60;;;24.70;99.90;;;;;;5068380;28;20234;-78
2021/09/20 11:55:50;;;;;;;0.47;0.40;;;24.80;99.90;;;;;;5069568;28;20232;-79
2021/09/20 11:58:18;;;;;;;0.40;0.40;;;24.90;99.90;;;;;;5068109;28;20262;-78
2021/09/20 12:00:48;;;;;;;0.35;0.35;;;25.20;99.90;;;;;;5071691;28;20227;-78
2021/09/20 12:03:20;;;;;;;0.40;0.40;;;25.20;99.90;;;;;;5071318;28;20226;-78
2021/09/20 12:05:48;;;;;;;0.52;0.47;;;25.20;99.90;;;;;;5072434;28;20234;-79
2021/09/20 12:08:16;;;;;;;0.40;0.40;;;25.20;99.90;;;;;;5073241;28;20291;-78
2021/09/20 12:10:47;;;;;;;1.48;0.50;;;25.20;99.90;;;;;;5072360;28;20234;-78
2021/09/20 12:13:16;;;;;;;0.40;0.40;;;25.00;99.90;;;;;;5070456;28;20299;-79
2021/09/20 12:15:45;;;;;;;0.55;0.50;;;24.80;99.90;;;;;;5072368;28;20238;-79
2021/09/20 12:18:14;;;;;;;0.40;0.35;;;24.70;99.90;;;;;;5071943;28;20234;-79
2021/09/20 12:20:44;;;;;;;0.40;0.40;;;24.60;99.90;;;;;;5071143;28;20309;-79
2021/09/20 12:23:13;;;;;;;0.40;0.40;;;24.60;99.90;;;;;;5066616;28;20241;-79
2021/09/20 12:25:43;;;;;;;0.77;0.50;;;24.70;99.90;;;;;;5067341;28;20226;-78
2021/09/20 12:28:22;;;;;;;0.47;0.47;;;24.50;99.90;;;;;;5073087;28;20229;-78
2021/09/20 12:30:54;;;;;;;0.35;0.30;;;24.60;99.90;;;;;;5066808;28;20218;-78
2021/09/20 12:33:21;;;;;;;0.47;0.40;;;24.70;99.90;;;;;;5044200;28;20256;-79
2021/09/20 12:35:50;;;;;;;0.40;0.40;;;24.70;99.90;;;;;;5074811;28;20234;-78
2021/09/20 12:38:22;;;;;;;0.60;0.55;;;24.70;99.90;;;;;;5100409;22;20632;-71
2021/09/20 12:40:51;;;;;;;0.40;0.40;;;24.80;99.90;;;;;;5047777;28;20312;-71
2021/09/20 12:43:25;;;;;;;0.40;0.40;;;24.80;99.90;;;;;;5052374;28;20221;-72
2021/09/20 12:45:53;;;;;;;0.30;0.30;;;24.80;99.90;;;;;;5051038;28;20599;-72
2021/09/20 12:48:33;;;;;;;0.40;0.40;;;24.70;99.90;;;;;;5053037;28;20231;-71
2021/09/20 12:51:03;;;;;;;0.40;0.40;;;24.60;99.90;;;;;;5039659;28;20218;-71
2021/09/20 12:53:33;;;;;;;0.80;0.50;;;24.50;99.90;;;;;;5038758;28;20219;-71
2021/09/20 12:56:00;;;;;;;0.47;0.47;;;24.30;99.90;;;;;;5038597;28;20686;-71